Time;durP1;ratioP1;P1;durP2;ratioP2;P2;SDS_P1;SDS_P2;PMS_P1;PMS_P2;Temp;Humidity;BMP_temperature;BMP_pressure;BME280_temperature;BME280_humidity;BME280_pressure;Samples;Min_cycle;Max_cycle;Signal;HPM_P1;HPM_P2
2021/10/29 00:02:00;;;;;;;926.88;760.60;;;;;;;;;;5070891;28;20132;-77
2021/10/29 00:04:25;;;;;;;933.47;777.15;;;;;;;;;;5070028;28;20145;-77
2021/10/29 00:06:51;;;;;;;934.75;784.95;;;;;;;;;;5088490;28;20036;-78
2021/10/29 00:09:17;;;;;;;931.08;772.22;;;;;;;;;;5070677;28;20036;-78
2021/10/29 00:11:44;;;;;;;932.63;774.38;;;;;;;;;;5071178;28;20020;-78
2021/10/29 00:14:10;;;;;;;929.10;769.05;;;;;;;;;;5070934;28;20073;-78
2021/10/29 00:16:36;;;;;;;933.55;774.33;;;;;;;;;;5082487;28;20441;-78
2021/10/29 00:19:02;;;;;;;934.58;779.30;;;;;;;;;;5070362;28;20031;-78
2021/10/29 00:21:28;;;;;;;935.65;786.58;;;;;;;;;;5069793;28;20648;-79
2021/10/29 00:23:58;;;;;;;936.63;785.25;;;;;;;;;;5073798;28;20135;-78
2021/10/29 00:26:24;;;;;;;932.15;768.72;;;;;;;;;;5088721;28;20032;-78
2021/10/29 00:28:50;;;;;;;933.70;776.83;;;;;;;;;;5088533;28;20178;-78
2021/10/29 00:31:16;;;;;;;934.20;771.90;;;;;;;;;;5070359;28;20551;-78
2021/10/29 00:33:42;;;;;;;935.05;777.80;;;;;;;;;;5070328;28;20027;-77
2021/10/29 00:36:08;;;;;;;937.47;784.47;;;;;;;;;;5065222;28;20032;-76
2021/10/29 00:38:34;;;;;;;936.13;780.97;;;;;;;;;;5070119;28;20024;-78
2021/10/29 00:41:00;;;;;;;932.42;776.67;;;;;;;;;;5073771;28;20023;-77
2021/10/29 00:43:26;;;;;;;932.35;776.08;;;;;;;;;;5088522;28;20055;-78
2021/10/29 00:45:52;;;;;;;934.47;779.42;;;;;;;;;;5075060;28;20067;-79
2021/10/29 00:48:18;;;;;;;939.72;793.40;;;;;;;;;;5086468;28;20475;-77
2021/10/29 00:50:46;;;;;;;933.92;782.65;;;;;;;;;;5063233;28;20024;-78
2021/10/29 00:53:12;;;;;;;937.17;782.70;;;;;;;;;;5067199;28;20029;-78
2021/10/29 00:55:38;;;;;;;930.90;777.42;;;;;;;;;;5082183;28;20082;-78
2021/10/29 00:58:04;;;;;;;932.15;778.55;;;;;;;;;;5082663;28;20032;-78
2021/10/29 01:00:31;;;;;;;927.92;769.17;;;;;;;;;;5086288;28;20335;-77
2021/10/29 01:03:01;;;;;;;938.15;796.35;;;;;;;;;;5079169;28;20081;-78
2021/10/29 01:05:29;;;;;;;936.20;792.45;;;;;;;;;;5088043;28;20216;-79
2021/10/29 01:07:57;;;;;;;935.95;788.75;;;;;;;;;;5088269;28;20343;-78
2021/10/29 01:10:23;;;;;;;933.67;779.72;;;;;;;;;;5065557;28;20115;-77
2021/10/29 01:12:49;;;;;;;933.33;784.63;;;;;;;;;;5077667;28;20028;-78
2021/10/29 01:15:15;;;;;;;935.20;790.47;;;;;;;;;;5058890;28;20033;-77
2021/10/29 01:17:41;;;;;;;933.60;783.58;;;;;;;;;;5064280;28;20078;-78
2021/10/29 01:20:08;;;;;;;939.40;799.85;;;;;;;;;;5076525;28;20040;-78
2021/10/29 01:22:34;;;;;;;931.58;774.60;;;;;;;;;;5066278;28;20107;-78
2021/10/29 01:25:00;;;;;;;938.08;791.28;;;;;;;;;;5081721;28;20032;-77
2021/10/29 01:27:26;;;;;;;933.03;782.33;;;;;;;;;;5004651;28;20037;-78
2021/10/29 01:29:52;;;;;;;940.38;800.10;;;;;;;;;;5002857;28;20103;-76
2021/10/29 01:32:19;;;;;;;931.95;780.42;;;;;;;;;;5010076;28;20033;-79
2021/10/29 01:34:48;;;;;;;931.35;773.65;;;;;;;;;;5025993;28;20037;-77
2021/10/29 01:37:15;;;;;;;931.75;785.53;;;;;;;;;;5024397;28;20033;-78
2021/10/29 01:39:42;;;;;;;936.63;787.05;;;;;;;;;;5007570;28;20099;-79
2021/10/29 01:42:10;;;;;;;934.88;788.60;;;;;;;;;;5022367;28;20124;-79
2021/10/29 01:44:36;;;;;;;934.05;789.17;;;;;;;;;;5006018;28;20517;-79
2021/10/29 01:47:02;;;;;;;938.80;793.42;;;;;;;;;;5020868;28;20045;-77
2021/10/29 01:49:28;;;;;;;931.78;774.63;;;;;;;;;;5005948;28;20069;-77
2021/10/29 01:51:54;;;;;;;932.25;782.53;;;;;;;;;;5005028;28;20442;-78
2021/10/29 01:54:21;;;;;;;933.08;782.63;;;;;;;;;;5015924;28;20062;-78
2021/10/29 01:56:47;;;;;;;942.63;802.50;;;;;;;;;;5027318;28;20026;-77
2021/10/29 01:59:14;;;;;;;935.85;787.85;;;;;;;;;;5077259;28;20484;-78
2021/10/29 02:01:40;;;;;;;938.03;791.45;;;;;;;;;;5070686;28;20103;-77
2021/10/29 02:04:06;;;;;;;937.95;790.63;;;;;;;;;;5073293;28;20067;-77
2021/10/29 02:06:32;;;;;;;924.78;756.50;;;;;;;;;;5084111;28;20439;-76
2021/10/29 02:08:58;;;;;;;932.35;775.08;;;;;;;;;;5069830;28;20059;-78
2021/10/29 02:11:24;;;;;;;937.90;788.88;;;;;;;;;;5087733;28;20098;-77
2021/10/29 02:13:50;;;;;;;928.40;757.90;;;;;;;;;;5087173;28;20496;-77
2021/10/29 02:16:16;;;;;;;932.50;777.55;;;;;;;;;;5070376;28;20426;-77
2021/10/29 02:18:42;;;;;;;937.47;790.17;;;;;;;;;;5066385;28;20032;-77
2021/10/29 02:21:08;;;;;;;920.63;745.03;;;;;;;;;;5088828;28;20513;-79
2021/10/29 02:23:34;;;;;;;926.95;761.45;;;;;;;;;;5073481;28;20025;-78
2021/10/29 02:26:00;;;;;;;922.42;748.97;;;;;;;;;;5082692;28;20039;-78
2021/10/29 02:28:26;;;;;;;936.03;782.90;;;;;;;;;;5090995;28;20061;-77
2021/10/29 02:30:52;;;;;;;919.95;736.15;;;;;;;;;;5090189;28;20034;-78
2021/10/29 02:33:19;;;;;;;933.90;775.85;;;;;;;;;;5079965;28;20367;-78
2021/10/29 02:35:45;;;;;;;925.78;749.25;;;;;;;;;;5060136;28;20016;-78
2021/10/29 02:38:12;;;;;;;930.65;761.28;;;;;;;;;;5088048;28;20032;-78
2021/10/29 02:40:38;;;;;;;934.35;774.33;;;;;;;;;;5065801;28;20255;-77
2021/10/29 02:43:04;;;;;;;916.65;725.88;;;;;;;;;;5072665;28;20020;-78
2021/10/29 02:45:30;;;;;;;925.85;754.00;;;;;;;;;;5072501;28;20031;-77
2021/10/29 02:47:56;;;;;;;929.30;762.03;;;;;;;;;;5065399;28;20039;-78
2021/10/29 02:50:23;;;;;;;911.17;709.53;;;;;;;;;;5088188;28;20403;-77
2021/10/29 02:52:49;;;;;;;918.83;741.20;;;;;;;;;;5072705;28;20028;-79
2021/10/29 02:55:15;;;;;;;904.45;693.35;;;;;;;;;;5089687;28;20032;-78
2021/10/29 02:57:41;;;;;;;915.53;721.83;;;;;;;;;;5068474;28;20038;-78
2021/10/29 03:00:11;;;;;;;903.30;684.70;;;;;;;;;;5054227;28;20093;-79
2021/10/29 03:02:37;;;;;;;922.20;737.67;;;;;;;;;;5035816;28;20423;-79
2021/10/29 03:05:04;;;;;;;918.38;730.15;;;;;;;;;;5082625;28;20066;-78
2021/10/29 03:07:30;;;;;;;927.20;744.60;;;;;;;;;;5071787;28;20278;-79
2021/10/29 03:09:56;;;;;;;915.10;723.25;;;;;;;;;;5090602;28;20476;-78
2021/10/29 03:12:23;;;;;;;927.58;749.88;;;;;;;;;;5090500;28;20074;-78
2021/10/29 03:14:49;;;;;;;921.50;735.35;;;;;;;;;;5069917;28;20581;-78
2021/10/29 03:17:15;;;;;;;921.47;734.70;;;;;;;;;;5042433;28;20398;-79
2021/10/29 03:19:41;;;;;;;930.38;757.75;;;;;;;;;;5030552;28;20029;-78
2021/10/29 03:22:07;;;;;;;913.03;713.92;;;;;;;;;;5039156;28;20031;-77
2021/10/29 03:24:33;;;;;;;935.08;771.88;;;;;;;;;;5045679;28;20034;-78
2021/10/29 03:26:59;;;;;;;912.95;712.92;;;;;;;;;;5045003;28;20337;-77
2021/10/29 03:29:26;;;;;;;916.17;722.70;;;;;;;;;;5043249;28;20618;-77
2021/10/29 03:31:52;;;;;;;922.63;742.35;;;;;;;;;;5045306;28;20530;-78
2021/10/29 03:34:18;;;;;;;920.42;738.00;;;;;;;;;;5047813;28;20013;-78
2021/10/29 03:36:45;;;;;;;935.75;775.65;;;;;;;;;;5047479;28;20067;-78
2021/10/29 03:39:15;;;;;;;940.15;788.75;;;;;;;;;;5048471;28;20071;-79
2021/10/29 03:41:49;;;;;;;933.17;776.55;;;;;;;;;;5049185;28;20031;-77
2021/10/29 03:44:31;;;;;;;935.55;780.95;;;;;;;;;;5043292;28;20021;-78
2021/10/29 03:46:58;;;;;;;913.15;711.97;;;;;;;;;;5047917;28;20027;-78
2021/10/29 03:49:32;;;;;;;923.55;749.10;;;;;;;;;;5048195;28;20020;-78
2021/10/29 03:52:08;;;;;;;929.67;762.00;;;;;;;;;;5048088;28;20021;-78
2021/10/29 03:54:35;;;;;;;925.80;744.53;;;;;;;;;;5049297;28;20289;-78
2021/10/29 03:59:27;;;;;;;928.35;761.13;;;;;;;;;;5045154;28;20037;-78
2021/10/29 04:01:53;;;;;;;930.67;764.20;;;;;;;;;;5048913;28;20063;-77
2021/10/29 04:04:19;;;;;;;910.15;710.72;;;;;;;;;;5047856;28;20161;-78
2021/10/29 04:06:47;;;;;;;912.00;716.97;;;;;;;;;;5047839;28;20035;-78
2021/10/29 04:09:13;;;;;;;899.70;677.55;;;;;;;;;;5034897;28;20044;-77
2021/10/29 04:11:40;;;;;;;906.35;699.85;;;;;;;;;;5042226;28;20041;-79
2021/10/29 04:14:07;;;;;;;896.58;661.67;;;;;;;;;;5044170;28;20033;-77
2021/10/29 04:16:37;;;;;;;887.97;633.17;;;;;;;;;;5046284;28;20091;-80
2021/10/29 04:19:03;;;;;;;887.38;629.20;;;;;;;;;;5068880;28;20035;-78
2021/10/29 04:21:29;;;;;;;890.55;640.10;;;;;;;;;;5067983;28;20036;-78
2021/10/29 04:23:56;;;;;;;907.53;705.03;;;;;;;;;;5088505;28;20386;-79
2021/10/29 04:26:23;;;;;;;906.65;697.03;;;;;;;;;;5070999;28;20031;-77
2021/10/29 04:28:54;;;;;;;906.03;689.83;;;;;;;;;;5058898;28;20028;-77
2021/10/29 04:31:23;;;;;;;915.25;720.22;;;;;;;;;;5060495;28;20059;-77
2021/10/29 04:33:50;;;;;;;903.72;686.42;;;;;;;;;;5066161;28;20103;-78
2021/10/29 04:36:16;;;;;;;901.65;681.03;;;;;;;;;;5058699;28;20024;-80
2021/10/29 04:38:42;;;;;;;921.28;736.50;;;;;;;;;;5060947;28;20032;-78
2021/10/29 04:41:08;;;;;;;900.70;680.72;;;;;;;;;;5063731;28;20054;-78
2021/10/29 04:43:34;;;;;;;908.67;702.53;;;;;;;;;;5069822;28;20328;-79
2021/10/29 04:46:00;;;;;;;919.10;734.92;;;;;;;;;;5074379;28;20063;-78
2021/10/29 04:48:30;;;;;;;909.33;716.95;;;;;;;;;;5062674;28;20476;-79
2021/10/29 04:50:56;;;;;;;916.50;725.03;;;;;;;;;;5076891;28;20024;-78
2021/10/29 04:53:28;;;;;;;920.85;744.50;;;;;;;;;;5068894;28;20027;-77
2021/10/29 04:55:54;;;;;;;907.72;708.45;;;;;;;;;;5082560;28;20063;-79
2021/10/29 04:58:20;;;;;;;920.08;737.83;;;;;;;;;;5078219;28;20536;-78
2021/10/29 05:00:48;;;;;;;926.70;757.70;;;;;;;;;;5072128;28;21340;-78
2021/10/29 05:03:14;;;;;;;923.65;739.83;;;;;;;;;;5087624;28;20027;-78
2021/10/29 05:05:40;;;;;;;919.90;734.20;;;;;;;;;;5088720;28;20422;-78
2021/10/29 05:08:07;;;;;;;896.10;669.08;;;;;;;;;;5087982;28;20099;-77
2021/10/29 05:10:34;;;;;;;923.92;753.00;;;;;;;;;;5085011;28;20017;-77
2021/10/29 05:13:01;;;;;;;930.75;742.45;;;;;;;;;;5081468;28;20479;-77
2021/10/29 05:15:27;;;;;;;923.38;743.17;;;;;;;;;;5076112;28;20385;-77
2021/10/29 05:17:55;;;;;;;933.80;779.45;;;;;;;;;;5051548;28;20045;-76
2021/10/29 05:20:21;;;;;;;942.67;790.97;;;;;;;;;;5051313;28;20040;-76
2021/10/29 05:22:47;;;;;;;932.05;782.17;;;;;;;;;;5063726;28;20021;-77
2021/10/29 05:25:13;;;;;;;932.22;784.53;;;;;;;;;;5028528;28;20075;-77
2021/10/29 05:27:39;;;;;;;931.53;778.33;;;;;;;;;;5044408;28;20029;-78
2021/10/29 05:30:07;;;;;;;935.22;790.08;;;;;;;;;;5046101;28;20033;-77
2021/10/29 05:32:34;;;;;;;931.83;787.03;;;;;;;;;;5038345;28;20018;-77
2021/10/29 05:35:01;;;;;;;933.05;784.80;;;;;;;;;;5067358;28;20021;-77
2021/10/29 05:37:34;;;;;;;928.00;776.60;;;;;;;;;;5044031;28;20032;-78
2021/10/29 05:40:00;;;;;;;929.38;779.20;;;;;;;;;;5060925;28;20033;-78
2021/10/29 05:42:27;;;;;;;924.00;762.58;;;;;;;;;;5042956;28;20025;-77
2021/10/29 05:44:54;;;;;;;931.90;779.35;;;;;;;;;;5061759;28;20020;-79
2021/10/29 05:47:20;;;;;;;926.78;774.13;;;;;;;;;;5060072;28;20037;-78
2021/10/29 05:49:47;;;;;;;934.08;772.60;;;;;;;;;;5060745;28;20481;-77
2021/10/29 05:52:21;;;;;;;932.65;785.22;;;;;;;;;;5045599;28;20040;-78
2021/10/29 05:57:20;;;;;;;929.30;775.38;;;;;;;;;;5045528;28;20025;-79
2021/10/29 05:59:46;;;;;;;933.08;781.65;;;;;;;;;;5063160;28;20504;-79
2021/10/29 06:02:12;;;;;;;927.33;772.38;;;;;;;;;;5047880;28;20405;-78
2021/10/29 06:04:38;;;;;;;931.80;776.55;;;;;;;;;;5039809;28;20034;-78
2021/10/29 06:07:05;;;;;;;927.38;763.67;;;;;;;;;;5062008;28;20067;-79
2021/10/29 06:09:31;;;;;;;932.28;781.67;;;;;;;;;;5064116;28;20044;-78
2021/10/29 06:11:57;;;;;;;933.33;781.90;;;;;;;;;;5060402;28;20124;-78
2021/10/29 06:14:26;;;;;;;929.08;773.42;;;;;;;;;;5066258;28;20108;-79
2021/10/29 06:16:56;;;;;;;930.50;775.30;;;;;;;;;;5058908;28;20072;-76
2021/10/29 06:19:23;;;;;;;933.95;779.08;;;;;;;;;;5034204;28;20029;-79
2021/10/29 06:21:59;;;;;;;928.67;774.08;;;;;;;;;;5049303;28;20033;-78
2021/10/29 06:24:26;;;;;;;918.05;734.50;;;;;;;;;;5042032;28;20031;-78
2021/10/29 06:27:10;;;;;;;925.92;760.75;;;;;;;;;;5040363;28;20146;-77
2021/10/29 06:29:36;;;;;;;932.65;770.90;;;;;;;;;;5040540;28;20473;-80
2021/10/29 06:32:03;;;;;;;934.33;782.70;;;;;;;;;;5048242;28;20098;-79
2021/10/29 06:34:29;;;;;;;935.58;784.55;;;;;;;;;;5050977;28;20229;-79
2021/10/29 06:36:56;;;;;;;932.15;775.33;;;;;;;;;;5051013;28;20469;-77
2021/10/29 06:39:22;;;;;;;922.58;749.42;;;;;;;;;;5048770;28;20033;-78
2021/10/29 06:41:52;;;;;;;921.10;745.67;;;;;;;;;;5037946;28;20040;-79
2021/10/29 06:47:09;;;;;;;922.72;749.25;;;;;;;;;;5049662;28;20477;-78
2021/10/29 06:52:37;;;;;;;909.40;706.70;;;;;;;;;;5046095;28;20028;-77
2021/10/29 07:00:56;;;;;;;923.45;751.35;;;;;;;;;;5052694;28;20603;-78
2021/10/29 07:41:51;;;;;;;945.05;840.72;;;;;;;;;;5087590;28;20039;-77
2021/10/29 07:44:25;;;;;;;919.15;791.53;;;;;;;;;;5091616;28;20024;-77
2021/10/29 07:46:51;;;;;;;982.65;876.67;;;;;;;;;;5070856;28;20086;-78
2021/10/29 07:49:17;;;;;;;1007.22;900.33;;;;;;;;;;5088109;28;20475;-78
2021/10/29 07:51:43;;;;;;;1018.33;910.83;;;;;;;;;;5075436;28;20024;-76
2021/10/29 07:54:10;;;;;;;993.05;887.10;;;;;;;;;;5073776;28;20032;-78
2021/10/29 07:56:36;;;;;;;1023.58;915.83;;;;;;;;;;5067250;28;20427;-77
2021/10/29 07:59:02;;;;;;;996.83;890.70;;;;;;;;;;5075008;28;20077;-78
2021/10/29 08:01:28;;;;;;;1019.00;911.60;;;;;;;;;;5075453;28;20035;-79
2021/10/29 08:03:54;;;;;;;1016.00;908.67;;;;;;;;;;5075027;28;20110;-78
2021/10/29 08:06:25;;;;;;;1054.15;945.05;;;;;;;;;;5089235;28;20028;-77
2021/10/29 08:08:56;;;;;;;1038.32;930.40;;;;;;;;;;5086250;28;20038;-77
2021/10/29 08:11:22;;;;;;;1037.43;929.20;;;;;;;;;;5072487;28;20548;-77
2021/10/29 08:13:49;;;;;;;1050.53;941.88;;;;;;;;;;5071068;28;20028;-78
2021/10/29 08:16:20;;;;;;;1043.72;935.50;;;;;;;;;;5065391;28;20581;-77
2021/10/29 08:18:48;;;;;;;1055.75;946.75;;;;;;;;;;5087940;28;20052;-77
2021/10/29 08:21:15;;;;;;;1050.18;941.47;;;;;;;;;;5070330;28;20495;-77
2021/10/29 08:23:42;;;;;;;1039.40;931.33;;;;;;;;;;5068830;28;20380;-78
2021/10/29 08:26:08;;;;;;;1057.05;948.25;;;;;;;;;;5086896;28;20066;-79
2021/10/29 08:28:34;;;;;;;1041.05;932.92;;;;;;;;;;5075420;28;20029;-75
2021/10/29 08:31:01;;;;;;;1041.13;932.80;;;;;;;;;;5064833;28;20035;-76
2021/10/29 08:33:28;;;;;;;1037.85;929.75;;;;;;;;;;5075207;28;20031;-78
2021/10/29 08:35:54;;;;;;;1032.18;923.97;;;;;;;;;;5072933;28;20020;-78
2021/10/29 08:38:23;;;;;;;1025.25;917.90;;;;;;;;;;5072198;28;20483;-77
2021/10/29 08:40:50;;;;;;;1032.65;924.28;;;;;;;;;;5054245;28;20027;-77
2021/10/29 08:43:17;;;;;;;998.28;892.42;;;;;;;;;;5069210;28;20028;-79
2021/10/29 08:45:43;;;;;;;1013.72;906.97;;;;;;;;;;5089055;28;20456;-78
2021/10/29 08:48:13;;;;;;;1021.78;914.70;;;;;;;;;;5083903;28;20032;-79
2021/10/29 08:50:39;;;;;;;1045.95;937.60;;;;;;;;;;5076870;28;20032;-78
2021/10/29 08:53:05;;;;;;;1028.93;922.40;;;;;;;;;;5082591;28;20031;-77
2021/10/29 08:55:34;;;;;;;1010.00;904.38;;;;;;;;;;5083383;28;20106;-79
2021/10/29 08:58:04;;;;;;;1058.47;949.75;;;;;;;;;;5088116;28;20020;-78
2021/10/29 09:00:37;;;;;;;1010.08;904.38;;;;;;;;;;5067496;28;20027;-78
2021/10/29 09:35:30;;;;;;;978.60;874.05;;;;;;;;;;5084034;28;20036;-78
2021/10/29 09:38:09;;;;;;;1002.92;897.17;;;;;;;;;;5069454;28;20020;-78
2021/10/29 09:40:40;;;;;;;1006.65;900.38;;;;;;;;;;5073677;28;20030;-79
2021/10/29 09:43:14;;;;;;;985.00;880.30;;;;;;;;;;5092057;28;20059;-76
2021/10/29 09:46:08;;;;;;;969.13;864.97;;;;;;;;;;5092010;28;20074;-79
2021/10/29 09:48:44;;;;;;;968.90;864.67;;;;;;;;;;5069841;28;20059;-77
2021/10/29 09:51:11;;;;;;;982.00;877.22;;;;;;;;;;5073990;28;20089;-77
2021/10/29 09:54:38;;;;;;;968.13;864.13;;;;;;;;;;5080375;28;20109;-78
2021/10/29 09:56:55;;;;;;;944.08;840.40;;;;;;;;;;5081363;28;20042;-79
2021/10/29 09:59:40;;;;;;;988.92;884.25;;;;;;;;;;5090268;28;20040;-78
2021/10/29 10:02:27;;;;;;;982.03;877.67;;;;;;;;;;5045957;28;20043;-78
2021/10/29 10:04:54;;;;;;;970.83;867.08;;;;;;;;;;5045333;28;20041;-78
2021/10/29 10:07:22;;;;;;;973.60;869.90;;;;;;;;;;5046356;28;20060;-77
2021/10/29 10:09:51;;;;;;;1005.15;900.15;;;;;;;;;;5030419;28;20067;-77
2021/10/29 10:12:20;;;;;;;994.38;889.92;;;;;;;;;;5020080;28;20296;-79
2021/10/29 10:14:46;;;;;;;988.67;884.50;;;;;;;;;;5019920;28;20025;-79
2021/10/29 10:17:15;;;;;;;1008.10;903.35;;;;;;;;;;5043644;28;20552;-77
2021/10/29 10:19:41;;;;;;;1013.53;908.45;;;;;;;;;;5050403;28;20098;-79
2021/10/29 10:22:12;;;;;;;952.17;849.50;;;;;;;;;;5045831;28;20344;-79
2021/10/29 10:24:38;;;;;;;1028.50;922.17;;;;;;;;;;5050125;28;20065;-80
2021/10/29 10:30:36;;;;;;;1034.70;928.42;;;;;;;;;;5051402;28;20040;-79
2021/10/29 10:41:05;;;;;;;1006.08;901.60;;;;;;;;;;5076720;28;20541;-79
2021/10/29 10:43:56;;;;;;;1010.28;904.70;;;;;;;;;;5074988;28;20450;-79
2021/10/29 10:46:21;;;;;;;1049.93;942.83;;;;;;;;;;5085336;28;20747;-79
2021/10/29 11:00:57;;;;;;;1005.88;901.45;;;;;;;;;;5085423;28;20411;-79
2021/10/29 11:03:25;;;;;;;1028.28;922.92;;;;;;;;;;5066095;28;20400;-80
2021/10/29 11:06:13;;;;;;;966.60;864.10;;;;;;;;;;5092196;28;20020;-77
2021/10/29 11:11:29;;;;;;;1012.17;907.97;;;;;;;;;;5043782;28;20488;-80
2021/10/29 11:14:00;;;;;;;979.37;876.70;;;;;;;;;;5075559;28;20504;-80
2021/10/29 11:16:26;;;;;;;;;;;;;;;;;;5083967;28;20456;-78
2021/10/29 11:18:55;;;;;;;913.00;810.60;;;;;;;;;;5088339;28;19923;-79
2021/10/29 11:21:33;;;;;;;974.28;871.80;;;;;;;;;;5088960;28;20024;-79
2021/10/29 11:24:00;;;;;;;981.70;878.80;;;;;;;;;;5071817;28;20040;-80
2021/10/29 11:26:28;;;;;;;976.92;874.72;;;;;;;;;;5070753;28;20032;-78
2021/10/29 11:28:55;;;;;;;963.05;861.33;;;;;;;;;;5057451;28;20029;-78
2021/10/29 11:31:28;;;;;;;965.28;863.17;;;;;;;;;;5070694;28;20452;-79
2021/10/29 11:33:58;;;;;;;971.25;869.03;;;;;;;;;;5067894;28;20194;-79
2021/10/29 11:36:51;;;;;;;1024.60;920.50;;;;;;;;;;5069784;28;20020;-78
2021/10/29 11:39:18;;;;;;;1002.70;899.60;;;;;;;;;;5085474;28;20408;-79
2021/10/29 11:41:46;;;;;;;1045.78;940.88;;;;;;;;;;5069958;28;20041;-80
2021/10/29 11:44:20;;;;;;;971.15;869.28;;;;;;;;;;5090555;28;20063;-78
2021/10/29 11:46:48;;;;;;;984.53;881.40;;;;;;;;;;5070536;28;20036;-81
2021/10/29 11:49:16;;;;;;;1051.55;945.88;;;;;;;;;;5065596;28;20024;-79
2021/10/29 11:51:43;;;;;;;1054.15;948.35;;;;;;;;;;5081050;28;20472;-80
2021/10/29 11:54:21;;;;;;;960.83;859.38;;;;;;;;;;5093039;28;20504;-78
2021/10/29 12:09:44;;;;;;;1008.20;904.22;;;;;;;;;;5091675;28;20040;-80
2021/10/29 12:12:17;;;;;;;1037.25;932.15;;;;;;;;;;5086435;28;20146;-79
2021/10/29 12:14:45;;;;;;;1030.03;922.35;;;;;;;;;;5086472;28;20450;-82
2021/10/29 12:17:24;;;;;;;1027.63;922.70;;;;;;;;;;5066777;28;20044;-79
2021/10/29 12:20:01;;;;;;;1056.20;950.28;;;;;;;;;;5087598;28;20076;-79
2021/10/29 12:25:11;;;;;;;1081.65;973.75;;;;;;;;;;5083748;28;20072;-80
2021/10/29 12:27:42;;;;;;;1070.60;963.35;;;;;;;;;;5074740;28;20099;-78
2021/10/29 12:30:25;;;;;;;1106.43;995.38;;;;;;;;;;5083912;28;20028;-80
2021/10/29 12:33:19;;;;;;;1106.75;995.45;;;;;;;;;;5074064;28;20143;-81
2021/10/29 13:03:07;;;;;;;1104.72;994.67;;;;;;;;;;5069757;28;20063;-78
2021/10/29 13:05:35;;;;;;;1106.70;995.40;;;;;;;;;;5079570;28;20055;-79
2021/10/29 13:08:01;;;;;;;1104.85;993.97;;;;;;;;;;5070534;28;20024;-78
2021/10/29 13:10:30;;;;;;;1084.20;975.83;;;;;;;;;;5075451;28;20303;-77
2021/10/29 13:15:25;;;;;;;1111.93;997.60;;;;;;;;;;5081950;28;20036;-77
2021/10/29 13:18:33;;;;;;;1106.20;994.35;;;;;;;;;;5053578;28;20056;-79
2021/10/29 13:26:30;;;;;;;1092.35;983.28;;;;;;;;;;5086930;28;20060;-76
2021/10/29 13:34:41;;;;;;;1089.07;979.85;;;;;;;;;;5087629;28;20057;-76
2021/10/29 13:37:30;;;;;;;1108.47;996.13;;;;;;;;;;5076847;28;20151;-79
2021/10/29 13:51:16;;;;;;;1114.90;998.83;;;;;;;;;;5087082;28;20047;-79
2021/10/29 13:53:55;;;;;;;1117.78;999.90;;;;;;;;;;5076621;28;20024;-78
2021/10/29 14:29:16;;;;;;;1104.32;993.70;;;;;;;;;;5087345;28;20483;-78
2021/10/29 14:34:37;;;;;;;1107.47;996.03;;;;;;;;;;5082151;28;20598;-76
2021/10/29 14:39:59;;;;;;;1104.90;994.22;;;;;;;;;;5093086;28;20048;-79
2021/10/29 14:42:50;;;;;;;1110.03;997.28;;;;;;;;;;5090372;28;20020;-78
2021/10/29 14:45:17;;;;;;;1110.32;997.35;;;;;;;;;;5082353;28;20032;-79
2021/10/29 14:47:58;;;;;;;1103.68;993.38;;;;;;;;;;5073087;28;20028;-78
2021/10/29 14:50:45;;;;;;;1121.47;999.90;;;;;;;;;;5090643;28;20028;-79
2021/10/29 15:04:11;;;;;;;893.65;793.00;;;;;;;;;;5089295;28;20112;-78
2021/10/29 15:27:04;;;;;;;887.63;750.78;;;;;;;;;;5087798;28;20036;-78
2021/10/29 15:28:58;;;;;;;888.30;758.35;;;;;;;;;;5067657;28;20044;-78
2021/10/29 15:45:05;;;;;;;883.67;746.63;;;;;;;;;;5063573;28;20128;-79
2021/10/29 15:47:46;;;;;;;912.25;812.15;;;;;;;;;;5087164;28;20539;-81
2021/10/29 15:50:15;;;;;;;891.05;770.28;;;;;;;;;;5091778;28;20024;-79
2021/10/29 15:52:48;;;;;;;889.75;772.63;;;;;;;;;;5091198;28;20411;-79
2021/10/29 15:55:21;;;;;;;892.30;778.15;;;;;;;;;;5071921;28;20012;-80
2021/10/29 15:58:00;;;;;;;891.40;777.55;;;;;;;;;;5071864;28;20029;-79
2021/10/29 16:00:50;;;;;;;972.85;870.22;;;;;;;;;;5089638;28;20027;-79
2021/10/29 16:03:27;;;;;;;934.30;833.28;;;;;;;;;;5071717;28;20089;-79
2021/10/29 16:19:29;;;;;;;967.70;865.65;;;;;;;;;;5090094;28;20391;-79
2021/10/29 16:21:57;;;;;;;967.03;865.53;;;;;;;;;;5069941;28;20483;-79
2021/10/29 16:24:23;;;;;;;951.17;849.78;;;;;;;;;;5089495;28;20419;-79
2021/10/29 16:26:52;;;;;;;934.72;833.80;;;;;;;;;;5056710;28;20036;-79
2021/10/29 16:29:23;;;;;;;910.45;810.50;;;;;;;;;;5029859;28;20037;-80
2021/10/29 16:31:49;;;;;;;907.65;808.08;;;;;;;;;;5010850;28;20041;-80
2021/10/29 16:34:15;;;;;;;923.53;823.17;;;;;;;;;;5061949;28;20114;-79
2021/10/29 16:36:42;;;;;;;921.47;821.13;;;;;;;;;;5050978;28;20036;-80
2021/10/29 16:39:08;;;;;;;920.08;820.17;;;;;;;;;;5029309;28;20127;-80
2021/10/29 16:41:34;;;;;;;953.13;851.88;;;;;;;;;;5029302;28;20024;-79
2021/10/29 16:44:00;;;;;;;950.20;848.72;;;;;;;;;;5033138;28;20409;-79
2021/10/29 16:46:26;;;;;;;923.22;823.03;;;;;;;;;;5049045;28;20054;-81
2021/10/29 16:48:52;;;;;;;918.03;818.22;;;;;;;;;;5033763;28;20463;-80
2021/10/29 16:51:20;;;;;;;931.33;830.67;;;;;;;;;;5052675;28;20043;-78
2021/10/29 16:53:47;;;;;;;889.47;786.60;;;;;;;;;;5017533;28;20088;-78
2021/10/29 16:56:13;;;;;;;903.15;803.83;;;;;;;;;;4993913;28;20125;-79
2021/10/29 16:58:41;;;;;;;900.35;800.78;;;;;;;;;;4994036;28;20092;-78
2021/10/29 17:01:08;;;;;;;893.20;792.83;;;;;;;;;;4994288;28;20050;-76
2021/10/29 17:03:34;;;;;;;889.28;784.30;;;;;;;;;;5029192;28;20042;-78
2021/10/29 17:06:00;;;;;;;894.92;795.65;;;;;;;;;;5013557;28;20025;-77
2021/10/29 17:08:33;;;;;;;928.25;828.42;;;;;;;;;;5013381;28;20033;-79
2021/10/29 17:10:58;;;;;;;888.20;774.88;;;;;;;;;;5012604;28;20691;-77
2021/10/29 17:13:24;;;;;;;884.80;764.38;;;;;;;;;;5007293;28;20125;-79
2021/10/29 17:15:52;;;;;;;928.78;828.83;;;;;;;;;;5023374;28;20060;-77
2021/10/29 17:18:18;;;;;;;942.25;841.80;;;;;;;;;;5022367;28;20081;-79
2021/10/29 17:20:44;;;;;;;893.63;790.65;;;;;;;;;;5004263;28;20022;-79
2021/10/29 17:23:10;;;;;;;885.70;766.20;;;;;;;;;;4996850;28;20029;-78
2021/10/29 17:25:36;;;;;;;893.85;792.15;;;;;;;;;;5064680;28;20074;-78
2021/10/29 17:28:03;;;;;;;917.78;817.83;;;;;;;;;;5072552;28;20050;-78
2021/10/29 17:30:29;;;;;;;888.17;778.00;;;;;;;;;;5078253;28;20025;-81
2021/10/29 17:32:58;;;;;;;891.30;774.53;;;;;;;;;;5090733;28;20099;-78
2021/10/29 17:35:24;;;;;;;884.28;758.90;;;;;;;;;;5077579;28;20667;-82
2021/10/29 17:37:50;;;;;;;910.80;810.83;;;;;;;;;;5090115;28;20036;-83
2021/10/29 17:40:17;;;;;;;888.30;771.63;;;;;;;;;;5077346;28;20047;-77
2021/10/29 17:42:44;;;;;;;890.20;770.63;;;;;;;;;;5086509;28;20028;-78
2021/10/29 17:45:11;;;;;;;885.92;756.78;;;;;;;;;;5092211;28;20043;-80
2021/10/29 17:47:38;;;;;;;889.05;767.40;;;;;;;;;;5047707;28;20397;-78
2021/10/29 17:50:05;;;;;;;894.83;789.53;;;;;;;;;;5060022;28;20124;-80
2021/10/29 17:52:31;;;;;;;892.28;778.28;;;;;;;;;;5019768;28;20037;-77
2021/10/29 17:55:00;;;;;;;887.60;770.20;;;;;;;;;;5030574;28;20025;-82
2021/10/29 17:57:27;;;;;;;890.50;767.70;;;;;;;;;;5056758;28;20029;-79
2021/10/29 17:59:55;;;;;;;886.80;751.17;;;;;;;;;;5034116;28;20037;-77
2021/10/29 18:02:26;;;;;;;887.95;754.15;;;;;;;;;;5029060;28;20037;-84
2021/10/29 18:04:58;;;;;;;887.97;753.83;;;;;;;;;;5065854;28;20048;-84
2021/10/29 18:07:26;;;;;;;881.53;721.97;;;;;;;;;;5033408;28;20579;-85
2021/10/29 18:09:52;;;;;;;887.50;746.08;;;;;;;;;;5036314;28;20068;-81
2021/10/29 18:12:19;;;;;;;892.85;783.60;;;;;;;;;;5036636;28;20214;-79
2021/10/29 18:14:45;;;;;;;940.20;839.17;;;;;;;;;;5029216;28;20547;-83
2021/10/29 18:17:13;;;;;;;914.58;814.28;;;;;;;;;;5028842;28;20052;-85
2021/10/29 18:19:39;;;;;;;928.65;828.13;;;;;;;;;;5070156;28;20048;-81
2021/10/29 18:22:09;;;;;;;895.40;788.65;;;;;;;;;;5088097;28;20028;-80
2021/10/29 18:24:38;;;;;;;900.55;796.63;;;;;;;;;;5073667;28;20494;-79
2021/10/29 18:27:05;;;;;;;900.00;797.63;;;;;;;;;;5076926;28;20028;-78
2021/10/29 18:29:31;;;;;;;894.38;785.03;;;;;;;;;;5067511;28;20362;-80
2021/10/29 18:31:57;;;;;;;901.55;798.08;;;;;;;;;;5069211;28;20004;-79
2021/10/29 18:34:25;;;;;;;911.45;811.08;;;;;;;;;;5070184;28;20024;-79
2021/10/29 18:36:51;;;;;;;932.33;831.10;;;;;;;;;;5068890;28;20020;-80
2021/10/29 18:39:17;;;;;;;908.10;808.15;;;;;;;;;;5086415;28;20034;-81